Weather at Dalcross Heliport

Public forecast

Using degrees Celsius for public forecast. Weather courtesy of forecast.io.

Closest aviation weather report (METAR) to Dalcross Heliport

Closest report is Inverness Airport, 0.7 nm (1.3 km) E. Retrieved 2021/07/28 00:20 UTC (15 minutes ago):

EGPE 280020Z AUTO 00000KT 9999 NCD 14/14 Q1004

Closest aviation forecast (TAF) to Dalcross Heliport

Forecast is more than 12 hours old.

Closest forecast is RAF Kinloss, 17.6 nm (32.5 km) ENE. Retrieved 2020/10/16 06:00 UTC (9 months ago):

TAF TAF EGQK 160658Z 1606/1624 CNL